RESULTATS »

INSCRITS PRESENTATS ACABEN RETIRATS DESQUALIFICATS DIST. TRAM 1 DIST. TRAM 2 DIST. TRAM 3 TEMP. EXT TEMP. AIGUA
0 0 0 0 5 24 3 0 0

CLASSIFICACIÓ

MASCULÍ FEMENÍ CATEGORIES CLUBS (MASCULINA) CLUBS (FEMENINA) INDIVIDUALS GRUPS D'EDAT

LLOCDORSALNOMCLUBCAT.T.META| P.Tram 1 || P.Tram 2 |Km/hTEMPS| P.Tram 3 |PARC_1PARC_2
1 82MERCE TUSELL QUEVEDOC.N.REUS PLOMS-ABF01:49:319700:26:319501:05:5221.8601:32:239400:17:080:00:000:00:00
2 3585RAGNA DEBATSC.N.REUS PLOMS-ABF01:50:589400:26:2211601:08:1121.1201:34:336600:16:250:00:000:00:00
3 3576MERITXELL GIMENEZ DALMAUC.N.REUS PLOMS-V1F01:51:1414400:28:228701:05:0922.1001:33:3111500:17:430:00:000:00:00
4 4045AMAYA LUQUIN DOMINGUEZHONDARRIBIKO TRIATLOI ELKABF01:55:1814000:28:2012401:09:0220.8601:37:2212200:17:560:00:000:00:00
5 3560NURIA ESPINOSA VENDRELLC. TRI. GRANOLLERSABF01:56:5117800:30:559801:06:0521.7901:37:0016700:19:510:00:000:00:00
6 61SÍLVIA PINEDA HAROCLUB TRIATL0 L'''' EIX DEABF01:57:5518500:31:1310801:07:2721.3501:38:4015900:19:150:00:000:00:00
7 3558TERESA PONS MUNILLC.E.T. DISTANCEABF01:59:3917000:30:0913701:10:0920.5301:40:1816000:19:210:00:000:00:00
8 1976PILAR RUS GARCIAC.N.REUS PLOMS-ABF02:01:3713300:28:0917601:15:4819.0001:43:5711100:17:400:00:000:00:00
9 1958LOLA BRUSAU ALÓSC.A.IGUALADA-V1F02:01:5314500:28:2517801:16:0018.9501:44:2510600:17:280:00:000:00:00
10 1848CRISTINA ROTXÉS AMBRÒSCLUB TRIATLO L'' EIX DE NV1F02:03:1814800:28:3017501:15:4419.0101:44:1415600:19:040:00:000:00:00
11 1820CHARO SANTA TERESA BARBA C. TRI. GRANOLLERSV1F02:06:3420300:32:4215801:13:0519.7001:45:4718000:20:470:00:000:00:00
12 1957BARBARA GINER HINTERMAYERSOC ATLETICA CORBERAABF02:07:0018800:31:2717701:15:5118.9801:47:1816400:19:420:00:000:00:00
13 6MONTSE JUNCAROL REGUANTCLUB TRIATL0 L'''' EIX DEV1F02:10:3118100:31:0019001:19:2318.1401:50:2317000:20:080:00:000:00:00
14 4051LAURA CREUS RAGASOLLLICENCIA DE DIAABF02:15:5619700:32:2119601:21:4817.6001:54:0919900:21:470:00:000:00:00
15 1888PAULA DE LA CUESTAC.T.S.J.ABADESSESV1F02:20:4021100:33:5420201:24:3017.0401:58:2420400:22:160:00:000:00:00
16 1937MONTSERRAT CINCA PATOC.N.REUS PLOMS-V1F02:24:0818900:31:2921501:33:0815.4602:04:3716300:19:310:00:000:00:00
17 1944SÍLVIA CORBERA SASTREC. TRI. GRANOLLERSV1F02:29:1221800:35:1621201:30:2915.9102:05:4521200:23:270:00:000:00:00
18 4055GLÒRIA SALAS SANCLIMENTSFEECABF02:29:1921900:35:1921401:32:1715.6002:07:3619700:21:430:00:000:00:00
19 3578LAIA ALSINA VIUCLUB TRIATLO BLANESJNF02:29:4220600:32:4521601:33:5215.3402:06:3721000:23:050:00:000:00:00
20 4040NEUS FIGUERAS SANSFEECABF02:38:2121200:34:3221701:39:1014.5202:13:4221700:24:390:00:000:00:00
21 1851MARTA SANCHEZ SALINASCLUB TRIATL0 L'''' EIX DEV1F02:41:2821600:35:0521901:41:4714.1502:16:5221600:24:360:00:000:00:00






FEDERACIÓ CATALANA DE TRIATLÓ
SEU CENTRAL I CORRESPONDÈNCIA: Rambla Guipúscoa 23-25 2on-D · 08018 Barcelona · Tel / Fax : 93 307 93 35
ATENCIÓ AL PÚBLIC: Passeig Joan de Borbó, 93 (Club Natació Barcelona) · 08039 Barcelona · Tel / Fax : 93 307 93 32